sensor_id;sensor_type;location;lat;lon;timestamp;P1;durP1;ratioP1;P2;durP2;ratioP2
19758;SDS011;10038;42.662;23.278;2023-06-01T00:00:33;11.00;;;8.33;;
19758;SDS011;10038;42.662;23.278;2023-06-01T00:03:00;11.00;;;8.50;;
19758;SDS011;10038;42.662;23.278;2023-06-01T00:05:28;8.47;;;7.50;;
19758;SDS011;10038;42.662;23.278;2023-06-01T00:07:54;9.40;;;8.00;;
19758;SDS011;10038;42.662;23.278;2023-06-01T00:10:21;9.63;;;7.93;;
19758;SDS011;10038;42.662;23.278;2023-06-01T00:12:47;13.47;;;8.80;;
19758;SDS011;10038;42.662;23.278;2023-06-01T00:15:14;9.10;;;7.20;;
19758;SDS011;10038;42.662;23.278;2023-06-01T00:17:40;9.87;;;7.60;;
19758;SDS011;10038;42.662;23.278;2023-06-01T00:20:07;9.77;;;7.10;;
19758;SDS011;10038;42.662;23.278;2023-06-01T00:22:35;10.87;;;7.50;;
19758;SDS011;10038;42.662;23.278;2023-06-01T00:25:04;9.70;;;8.03;;
19758;SDS011;10038;42.662;23.278;2023-06-01T00:27:31;11.63;;;8.40;;
19758;SDS011;10038;42.662;23.278;2023-06-01T00:29:57;9.20;;;7.53;;
19758;SDS011;10038;42.662;23.278;2023-06-01T00:32:24;11.17;;;7.77;;
19758;SDS011;10038;42.662;23.278;2023-06-01T00:34:51;12.70;;;8.20;;
19758;SDS011;10038;42.662;23.278;2023-06-01T00:37:17;14.93;;;9.70;;
19758;SDS011;10038;42.662;23.278;2023-06-01T00:39:45;9.63;;;8.40;;
19758;SDS011;10038;42.662;23.278;2023-06-01T00:42:12;18.10;;;8.47;;
19758;SDS011;10038;42.662;23.278;2023-06-01T00:44:39;11.47;;;8.30;;
19758;SDS011;10038;42.662;23.278;2023-06-01T00:47:05;12.13;;;8.60;;
19758;SDS011;10038;42.662;23.278;2023-06-01T00:49:32;13.13;;;8.80;;
19758;SDS011;10038;42.662;23.278;2023-06-01T00:51:59;10.77;;;8.00;;
19758;SDS011;10038;42.662;23.278;2023-06-01T00:54:26;15.30;;;9.83;;
19758;SDS011;10038;42.662;23.278;2023-06-01T00:56:54;11.17;;;8.23;;
19758;SDS011;10038;42.662;23.278;2023-06-01T00:59:21;11.17;;;9.27;;
19758;SDS011;10038;42.662;23.278;2023-06-01T01:01:47;12.63;;;8.97;;
19758;SDS011;10038;42.662;23.278;2023-06-01T01:04:14;11.00;;;8.37;;
19758;SDS011;10038;42.662;23.278;2023-06-01T01:06:53;11.20;;;7.87;;
19758;SDS011;10038;42.662;23.278;2023-06-01T01:09:22;11.17;;;8.37;;
19758;SDS011;10038;42.662;23.278;2023-06-01T01:11:51;13.73;;;8.90;;
19758;SDS011;10038;42.662;23.278;2023-06-01T01:14:21;11.37;;;7.70;;
19758;SDS011;10038;42.662;23.278;2023-06-01T01:16:53;14.33;;;9.30;;
19758;SDS011;10038;42.662;23.278;2023-06-01T01:19:35;10.50;;;7.87;;
19758;SDS011;10038;42.662;23.278;2023-06-01T01:22:12;10.70;;;8.73;;
19758;SDS011;10038;42.662;23.278;2023-06-01T01:24:43;11.43;;;8.60;;
19758;SDS011;10038;42.662;23.278;2023-06-01T01:27:25;9.70;;;8.07;;
19758;SDS011;10038;42.662;23.278;2023-06-01T01:30:04;13.53;;;7.77;;
19758;SDS011;10038;42.662;23.278;2023-06-01T01:32:32;13.10;;;8.87;;
19758;SDS011;10038;42.662;23.278;2023-06-01T01:35:00;14.20;;;9.23;;
19758;SDS011;10038;42.662;23.278;2023-06-01T01:37:27;12.47;;;8.97;;
19758;SDS011;10038;42.662;23.278;2023-06-01T01:39:54;13.50;;;7.77;;
19758;SDS011;10038;42.662;23.278;2023-06-01T01:42:21;13.93;;;7.90;;
19758;SDS011;10038;42.662;23.278;2023-06-01T01:44:47;11.60;;;8.67;;
19758;SDS011;10038;42.662;23.278;2023-06-01T01:47:17;11.57;;;9.10;;
19758;SDS011;10038;42.662;23.278;2023-06-01T01:49:46;13.50;;;8.80;;
19758;SDS011;10038;42.662;23.278;2023-06-01T01:52:15;15.37;;;8.27;;
19758;SDS011;10038;42.662;23.278;2023-06-01T01:54:43;12.53;;;8.00;;
19758;SDS011;10038;42.662;23.278;2023-06-01T01:57:11;13.10;;;10.27;;
19758;SDS011;10038;42.662;23.278;2023-06-01T01:59:38;17.33;;;8.30;;
19758;SDS011;10038;42.662;23.278;2023-06-01T02:02:06;14.03;;;9.50;;
19758;SDS011;10038;42.662;23.278;2023-06-01T02:04:34;13.97;;;9.00;;
19758;SDS011;10038;42.662;23.278;2023-06-01T02:07:03;12.33;;;7.70;;
19758;SDS011;10038;42.662;23.278;2023-06-01T02:09:30;10.93;;;8.80;;
19758;SDS011;10038;42.662;23.278;2023-06-01T02:11:57;12.43;;;7.63;;
19758;SDS011;10038;42.662;23.278;2023-06-01T02:14:23;12.00;;;9.40;;
19758;SDS011;10038;42.662;23.278;2023-06-01T02:16:50;14.37;;;8.47;;
19758;SDS011;10038;42.662;23.278;2023-06-01T02:19:16;12.00;;;8.20;;
19758;SDS011;10038;42.662;23.278;2023-06-01T02:21:44;15.57;;;8.90;;
19758;SDS011;10038;42.662;23.278;2023-06-01T02:24:11;11.23;;;8.00;;
19758;SDS011;10038;42.662;23.278;2023-06-01T02:26:38;14.77;;;8.60;;
19758;SDS011;10038;42.662;23.278;2023-06-01T02:29:05;15.00;;;9.00;;
19758;SDS011;10038;42.662;23.278;2023-06-01T02:31:31;15.30;;;8.23;;
19758;SDS011;10038;42.662;23.278;2023-06-01T02:33:58;13.63;;;8.00;;
19758;SDS011;10038;42.662;23.278;2023-06-01T02:36:25;12.00;;;7.70;;
19758;SDS011;10038;42.662;23.278;2023-06-01T02:38:53;11.73;;;8.23;;
19758;SDS011;10038;42.662;23.278;2023-06-01T02:41:19;14.10;;;7.90;;
19758;SDS011;10038;42.662;23.278;2023-06-01T02:43:46;13.43;;;10.27;;
19758;SDS011;10038;42.662;23.278;2023-06-01T02:46:15;11.90;;;8.93;;
19758;SDS011;10038;42.662;23.278;2023-06-01T02:48:42;11.73;;;9.00;;
19758;SDS011;10038;42.662;23.278;2023-06-01T02:51:08;13.07;;;8.40;;
19758;SDS011;10038;42.662;23.278;2023-06-01T02:53:35;11.93;;;9.20;;
19758;SDS011;10038;42.662;23.278;2023-06-01T02:56:03;10.27;;;8.53;;
19758;SDS011;10038;42.662;23.278;2023-06-01T02:58:29;10.80;;;8.40;;
19758;SDS011;10038;42.662;23.278;2023-06-01T03:00:56;12.57;;;7.90;;
19758;SDS011;10038;42.662;23.278;2023-06-01T03:03:23;11.30;;;8.33;;
19758;SDS011;10038;42.662;23.278;2023-06-01T03:05:50;16.10;;;8.80;;
19758;SDS011;10038;42.662;23.278;2023-06-01T03:08:17;11.23;;;8.07;;
19758;SDS011;10038;42.662;23.278;2023-06-01T03:10:43;13.87;;;9.60;;
19758;SDS011;10038;42.662;23.278;2023-06-01T03:13:11;13.63;;;8.13;;
19758;SDS011;10038;42.662;23.278;2023-06-01T03:15:38;18.87;;;9.33;;
19758;SDS011;10038;42.662;23.278;2023-06-01T03:18:05;11.53;;;8.60;;
19758;SDS011;10038;42.662;23.278;2023-06-01T03:20:32;11.07;;;9.03;;
19758;SDS011;10038;42.662;23.278;2023-06-01T03:22:58;13.93;;;8.90;;
19758;SDS011;10038;42.662;23.278;2023-06-01T03:25:25;22.10;;;9.57;;
19758;SDS011;10038;42.662;23.278;2023-06-01T03:27:51;13.03;;;9.17;;
19758;SDS011;10038;42.662;23.278;2023-06-01T03:30:19;12.30;;;8.47;;
19758;SDS011;10038;42.662;23.278;2023-06-01T03:32:46;18.13;;;9.67;;
19758;SDS011;10038;42.662;23.278;2023-06-01T03:35:13;17.93;;;9.80;;
19758;SDS011;10038;42.662;23.278;2023-06-01T03:37:40;12.53;;;9.13;;
19758;SDS011;10038;42.662;23.278;2023-06-01T03:40:08;17.40;;;10.03;;
19758;SDS011;10038;42.662;23.278;2023-06-01T03:42:36;11.53;;;9.60;;
19758;SDS011;10038;42.662;23.278;2023-06-01T03:45:04;23.60;;;10.33;;
19758;SDS011;10038;42.662;23.278;2023-06-01T03:47:32;23.13;;;10.63;;
19758;SDS011;10038;42.662;23.278;2023-06-01T03:49:59;13.00;;;9.53;;
19758;SDS011;10038;42.662;23.278;2023-06-01T03:52:26;15.50;;;10.20;;
19758;SDS011;10038;42.662;23.278;2023-06-01T03:54:53;17.23;;;10.27;;
19758;SDS011;10038;42.662;23.278;2023-06-01T03:57:20;19.20;;;10.20;;
19758;SDS011;10038;42.662;23.278;2023-06-01T03:59:47;12.93;;;9.00;;
19758;SDS011;10038;42.662;23.278;2023-06-01T04:02:13;11.10;;;8.97;;
19758;SDS011;10038;42.662;23.278;2023-06-01T04:04:41;13.67;;;8.67;;
19758;SDS011;10038;42.662;23.278;2023-06-01T04:07:10;14.80;;;9.30;;
19758;SDS011;10038;42.662;23.278;2023-06-01T04:09:40;15.20;;;8.77;;
19758;SDS011;10038;42.662;23.278;2023-06-01T04:12:06;15.73;;;9.03;;
19758;SDS011;10038;42.662;23.278;2023-06-01T04:14:34;12.03;;;8.43;;
19758;SDS011;10038;42.662;23.278;2023-06-01T04:17:01;15.13;;;9.43;;
19758;SDS011;10038;42.662;23.278;2023-06-01T04:19:27;12.43;;;9.47;;
19758;SDS011;10038;42.662;23.278;2023-06-01T04:21:55;17.10;;;9.60;;
19758;SDS011;10038;42.662;23.278;2023-06-01T04:24:22;14.23;;;10.20;;
19758;SDS011;10038;42.662;23.278;2023-06-01T04:26:48;14.70;;;11.20;;
19758;SDS011;10038;42.662;23.278;2023-06-01T04:29:15;13.10;;;9.57;;
19758;SDS011;10038;42.662;23.278;2023-06-01T04:31:44;13.37;;;10.10;;
19758;SDS011;10038;42.662;23.278;2023-06-01T04:34:11;16.77;;;10.37;;
19758;SDS011;10038;42.662;23.278;2023-06-01T04:36:37;17.23;;;11.50;;
19758;SDS011;10038;42.662;23.278;2023-06-01T04:39:06;12.40;;;10.50;;
19758;SDS011;10038;42.662;23.278;2023-06-01T04:41:34;14.23;;;10.70;;
19758;SDS011;10038;42.662;23.278;2023-06-01T04:44:01;14.73;;;9.90;;
19758;SDS011;10038;42.662;23.278;2023-06-01T04:46:31;20.53;;;10.37;;
19758;SDS011;10038;42.662;23.278;2023-06-01T04:48:57;14.33;;;10.23;;
19758;SDS011;10038;42.662;23.278;2023-06-01T04:51:26;15.03;;;10.90;;
19758;SDS011;10038;42.662;23.278;2023-06-01T04:53:54;12.93;;;10.30;;
19758;SDS011;10038;42.662;23.278;2023-06-01T04:56:22;14.20;;;9.70;;
19758;SDS011;10038;42.662;23.278;2023-06-01T04:58:50;14.60;;;11.33;;
19758;SDS011;10038;42.662;23.278;2023-06-01T05:01:17;15.73;;;10.27;;
19758;SDS011;10038;42.662;23.278;2023-06-01T05:03:44;15.90;;;11.17;;
19758;SDS011;10038;42.662;23.278;2023-06-01T05:06:11;16.13;;;11.40;;
19758;SDS011;10038;42.662;23.278;2023-06-01T05:08:38;13.63;;;11.03;;
19758;SDS011;10038;42.662;23.278;2023-06-01T05:11:04;13.30;;;11.00;;
19758;SDS011;10038;42.662;23.278;2023-06-01T05:13:33;15.90;;;11.43;;
19758;SDS011;10038;42.662;23.278;2023-06-01T05:16:00;14.53;;;10.87;;
19758;SDS011;10038;42.662;23.278;2023-06-01T05:18:27;13.23;;;11.33;;
19758;SDS011;10038;42.662;23.278;2023-06-01T05:20:53;13.17;;;10.67;;
19758;SDS011;10038;42.662;23.278;2023-06-01T05:23:20;22.50;;;12.40;;
19758;SDS011;10038;42.662;23.278;2023-06-01T05:25:47;14.83;;;10.27;;
19758;SDS011;10038;42.662;23.278;2023-06-01T05:28:13;17.47;;;12.03;;
19758;SDS011;10038;42.662;23.278;2023-06-01T05:30:41;15.00;;;10.83;;
19758;SDS011;10038;42.662;23.278;2023-06-01T05:33:09;17.80;;;11.60;;
19758;SDS011;10038;42.662;23.278;2023-06-01T05:35:36;18.20;;;11.97;;
19758;SDS011;10038;42.662;23.278;2023-06-01T05:38:02;17.77;;;11.63;;
19758;SDS011;10038;42.662;23.278;2023-06-01T05:40:29;14.33;;;11.73;;
19758;SDS011;10038;42.662;23.278;2023-06-01T05:42:55;12.93;;;11.07;;
19758;SDS011;10038;42.662;23.278;2023-06-01T05:45:22;16.90;;;12.73;;
19758;SDS011;10038;42.662;23.278;2023-06-01T05:47:50;16.47;;;12.10;;
19758;SDS011;10038;42.662;23.278;2023-06-01T05:50:16;17.63;;;13.07;;
19758;SDS011;10038;42.662;23.278;2023-06-01T05:52:43;19.70;;;13.77;;
19758;SDS011;10038;42.662;23.278;2023-06-01T05:55:10;21.50;;;13.70;;
19758;SDS011;10038;42.662;23.278;2023-06-01T05:57:36;17.73;;;13.43;;
19758;SDS011;10038;42.662;23.278;2023-06-01T06:00:03;19.70;;;12.83;;
19758;SDS011;10038;42.662;23.278;2023-06-01T06:02:34;19.17;;;14.17;;
19758;SDS011;10038;42.662;23.278;2023-06-01T06:05:02;17.70;;;14.27;;
19758;SDS011;10038;42.662;23.278;2023-06-01T06:07:29;21.50;;;14.53;;
19758;SDS011;10038;42.662;23.278;2023-06-01T06:09:56;17.20;;;13.77;;
19758;SDS011;10038;42.662;23.278;2023-06-01T06:12:22;26.43;;;15.53;;
19758;SDS011;10038;42.662;23.278;2023-06-01T06:14:49;23.60;;;16.20;;
19758;SDS011;10038;42.662;23.278;2023-06-01T06:17:15;25.50;;;16.03;;
19758;SDS011;10038;42.662;23.278;2023-06-01T06:19:42;18.57;;;14.37;;
19758;SDS011;10038;42.662;23.278;2023-06-01T06:22:11;23.27;;;15.23;;
19758;SDS011;10038;42.662;23.278;2023-06-01T06:24:37;20.50;;;16.03;;
19758;SDS011;10038;42.662;23.278;2023-06-01T06:27:04;22.93;;;14.60;;
19758;SDS011;10038;42.662;23.278;2023-06-01T06:29:31;18.93;;;14.23;;
19758;SDS011;10038;42.662;23.278;2023-06-01T06:31:58;20.07;;;14.83;;
19758;SDS011;10038;42.662;23.278;2023-06-01T06:34:24;19.60;;;14.33;;
19758;SDS011;10038;42.662;23.278;2023-06-01T06:36:51;18.17;;;13.57;;
19758;SDS011;10038;42.662;23.278;2023-06-01T06:39:19;18.87;;;14.30;;
19758;SDS011;10038;42.662;23.278;2023-06-01T06:41:46;20.67;;;15.17;;
19758;SDS011;10038;42.662;23.278;2023-06-01T06:44:12;20.10;;;15.03;;
19758;SDS011;10038;42.662;23.278;2023-06-01T06:46:39;20.80;;;15.33;;
19758;SDS011;10038;42.662;23.278;2023-06-01T06:49:06;18.30;;;13.90;;
19758;SDS011;10038;42.662;23.278;2023-06-01T06:51:32;20.40;;;15.50;;
19758;SDS011;10038;42.662;23.278;2023-06-01T06:53:59;18.60;;;14.20;;
19758;SDS011;10038;42.662;23.278;2023-06-01T06:56:29;20.33;;;15.20;;
19758;SDS011;10038;42.662;23.278;2023-06-01T06:58:55;22.53;;;15.30;;
19758;SDS011;10038;42.662;23.278;2023-06-01T07:01:22;24.00;;;15.03;;
19758;SDS011;10038;42.662;23.278;2023-06-01T07:03:50;19.73;;;14.60;;
19758;SDS011;10038;42.662;23.278;2023-06-01T07:06:16;18.83;;;15.20;;
19758;SDS011;10038;42.662;23.278;2023-06-01T07:08:43;19.63;;;14.73;;
19758;SDS011;10038;42.662;23.278;2023-06-01T07:11:10;19.87;;;14.20;;
19758;SDS011;10038;42.662;23.278;2023-06-01T07:13:38;17.53;;;12.90;;
19758;SDS011;10038;42.662;23.278;2023-06-01T07:16:04;15.47;;;13.70;;
19758;SDS011;10038;42.662;23.278;2023-06-01T07:18:31;22.73;;;14.77;;
19758;SDS011;10038;42.662;23.278;2023-06-01T07:20:58;21.33;;;14.70;;
19758;SDS011;10038;42.662;23.278;2023-06-01T07:23:24;16.10;;;11.40;;
19758;SDS011;10038;42.662;23.278;2023-06-01T07:25:51;16.17;;;12.97;;
19758;SDS011;10038;42.662;23.278;2023-06-01T07:28:17;17.83;;;13.27;;
19758;SDS011;10038;42.662;23.278;2023-06-01T07:30:45;16.03;;;12.60;;
19758;SDS011;10038;42.662;23.278;2023-06-01T07:33:12;14.40;;;12.03;;
19758;SDS011;10038;42.662;23.278;2023-06-01T07:35:39;13.50;;;11.40;;
19758;SDS011;10038;42.662;23.278;2023-06-01T07:38:05;14.87;;;12.53;;
19758;SDS011;10038;42.662;23.278;2023-06-01T07:40:32;17.23;;;11.67;;
19758;SDS011;10038;42.662;23.278;2023-06-01T07:42:59;17.10;;;13.53;;
19758;SDS011;10038;42.662;23.278;2023-06-01T07:45:25;14.13;;;12.00;;
19758;SDS011;10038;42.662;23.278;2023-06-01T07:47:53;15.50;;;12.00;;
19758;SDS011;10038;42.662;23.278;2023-06-01T07:50:20;19.87;;;12.63;;
19758;SDS011;10038;42.662;23.278;2023-06-01T07:52:48;15.93;;;12.60;;
19758;SDS011;10038;42.662;23.278;2023-06-01T07:55:15;14.93;;;11.30;;
19758;SDS011;10038;42.662;23.278;2023-06-01T07:57:42;23.80;;;12.57;;
19758;SDS011;10038;42.662;23.278;2023-06-01T08:00:09;17.07;;;12.93;;
19758;SDS011;10038;42.662;23.278;2023-06-01T08:02:37;14.37;;;12.63;;
19758;SDS011;10038;42.662;23.278;2023-06-01T08:05:06;23.00;;;14.33;;
19758;SDS011;10038;42.662;23.278;2023-06-01T08:07:32;14.80;;;12.80;;
19758;SDS011;10038;42.662;23.278;2023-06-01T08:10:00;15.30;;;13.77;;
19758;SDS011;10038;42.662;23.278;2023-06-01T08:12:27;15.83;;;12.17;;
19758;SDS011;10038;42.662;23.278;2023-06-01T08:14:54;16.60;;;13.20;;
19758;SDS011;10038;42.662;23.278;2023-06-01T08:17:22;17.17;;;13.03;;
19758;SDS011;10038;42.662;23.278;2023-06-01T08:19:49;16.03;;;12.93;;
19758;SDS011;10038;42.662;23.278;2023-06-01T08:22:17;15.00;;;12.30;;
19758;SDS011;10038;42.662;23.278;2023-06-01T08:24:43;14.77;;;13.33;;
19758;SDS011;10038;42.662;23.278;2023-06-01T08:27:16;15.23;;;13.17;;
19758;SDS011;10038;42.662;23.278;2023-06-01T08:29:44;24.53;;;14.10;;
19758;SDS011;10038;42.662;23.278;2023-06-01T08:32:11;18.83;;;14.63;;
19758;SDS011;10038;42.662;23.278;2023-06-01T08:34:37;18.00;;;13.33;;
19758;SDS011;10038;42.662;23.278;2023-06-01T08:37:04;15.17;;;13.20;;
19758;SDS011;10038;42.662;23.278;2023-06-01T08:39:32;18.63;;;13.87;;
19758;SDS011;10038;42.662;23.278;2023-06-01T08:42:03;15.93;;;12.67;;
19758;SDS011;10038;42.662;23.278;2023-06-01T08:44:32;16.43;;;12.77;;
19758;SDS011;10038;42.662;23.278;2023-06-01T08:47:01;13.90;;;11.97;;
19758;SDS011;10038;42.662;23.278;2023-06-01T08:49:28;16.93;;;13.93;;
19758;SDS011;10038;42.662;23.278;2023-06-01T08:51:56;14.57;;;12.60;;
19758;SDS011;10038;42.662;23.278;2023-06-01T08:54:23;18.03;;;13.13;;
19758;SDS011;10038;42.662;23.278;2023-06-01T08:56:51;19.20;;;12.60;;
19758;SDS011;10038;42.662;23.278;2023-06-01T08:59:18;17.30;;;13.43;;
19758;SDS011;10038;42.662;23.278;2023-06-01T09:01:45;15.23;;;12.30;;
19758;SDS011;10038;42.662;23.278;2023-06-01T09:04:12;13.53;;;10.73;;
19758;SDS011;10038;42.662;23.278;2023-06-01T09:06:41;15.20;;;11.17;;
19758;SDS011;10038;42.662;23.278;2023-06-01T09:09:07;13.13;;;10.40;;
19758;SDS011;10038;42.662;23.278;2023-06-01T09:11:37;13.23;;;11.17;;
19758;SDS011;10038;42.662;23.278;2023-06-01T09:14:09;14.93;;;11.23;;
19758;SDS011;10038;42.662;23.278;2023-06-01T09:16:45;12.70;;;11.23;;
19758;SDS011;10038;42.662;23.278;2023-06-01T09:19:12;15.10;;;10.47;;
19758;SDS011;10038;42.662;23.278;2023-06-01T09:21:39;12.77;;;10.87;;
19758;SDS011;10038;42.662;23.278;2023-06-01T09:24:17;11.63;;;10.53;;
19758;SDS011;10038;42.662;23.278;2023-06-01T09:26:47;15.50;;;11.97;;
19758;SDS011;10038;42.662;23.278;2023-06-01T09:29:15;17.70;;;12.17;;
19758;SDS011;10038;42.662;23.278;2023-06-01T09:31:42;11.37;;;10.17;;
19758;SDS011;10038;42.662;23.278;2023-06-01T09:34:10;10.77;;;9.27;;
19758;SDS011;10038;42.662;23.278;2023-06-01T09:36:37;12.13;;;10.63;;
19758;SDS011;10038;42.662;23.278;2023-06-01T09:39:06;11.20;;;9.70;;
19758;SDS011;10038;42.662;23.278;2023-06-01T09:41:45;12.00;;;9.93;;
19758;SDS011;10038;42.662;23.278;2023-06-01T09:44:12;9.83;;;8.93;;
19758;SDS011;10038;42.662;23.278;2023-06-01T09:46:47;11.27;;;9.53;;
19758;SDS011;10038;42.662;23.278;2023-06-01T09:49:18;13.30;;;11.10;;
19758;SDS011;10038;42.662;23.278;2023-06-01T09:51:44;10.70;;;6.90;;
19758;SDS011;10038;42.662;23.278;2023-06-01T09:54:20;11.90;;;7.27;;
19758;SDS011;10038;42.662;23.278;2023-06-01T09:56:48;9.03;;;8.13;;
19758;SDS011;10038;42.662;23.278;2023-06-01T09:59:15;9.60;;;7.37;;
19758;SDS011;10038;42.662;23.278;2023-06-01T10:01:42;7.63;;;6.23;;
19758;SDS011;10038;42.662;23.278;2023-06-01T10:04:11;5.80;;;4.60;;
19758;SDS011;10038;42.662;23.278;2023-06-01T10:06:41;6.07;;;5.33;;
19758;SDS011;10038;42.662;23.278;2023-06-01T10:09:10;6.90;;;5.20;;
19758;SDS011;10038;42.662;23.278;2023-06-01T10:11:39;7.50;;;5.70;;
19758;SDS011;10038;42.662;23.278;2023-06-01T10:14:06;9.00;;;5.37;;
19758;SDS011;10038;42.662;23.278;2023-06-01T10:16:32;7.60;;;5.47;;
19758;SDS011;10038;42.662;23.278;2023-06-01T10:19:00;5.73;;;4.30;;
19758;SDS011;10038;42.662;23.278;2023-06-01T10:21:28;5.63;;;4.10;;
19758;SDS011;10038;42.662;23.278;2023-06-01T10:23:57;5.73;;;3.87;;
19758;SDS011;10038;42.662;23.278;2023-06-01T10:26:23;7.50;;;5.90;;
19758;SDS011;10038;42.662;23.278;2023-06-01T10:28:52;5.13;;;4.63;;
19758;SDS011;10038;42.662;23.278;2023-06-01T10:34:12;10.13;;;6.37;;
19758;SDS011;10038;42.662;23.278;2023-06-01T10:39:37;11.33;;;7.30;;
19758;SDS011;10038;42.662;23.278;2023-06-01T10:44:48;7.63;;;6.43;;
19758;SDS011;10038;42.662;23.278;2023-06-01T10:50:08;10.13;;;6.63;;
19758;SDS011;10038;42.662;23.278;2023-06-01T10:52:35;10.83;;;9.27;;
19758;SDS011;10038;42.662;23.278;2023-06-01T11:00:43;6.73;;;6.03;;
19758;SDS011;10038;42.662;23.278;2023-06-01T11:03:11;9.43;;;7.80;;
19758;SDS011;10038;42.662;23.278;2023-06-01T11:05:39;7.03;;;5.73;;
19758;SDS011;10038;42.662;23.278;2023-06-01T11:08:06;8.03;;;7.23;;
19758;SDS011;10038;42.662;23.278;2023-06-01T11:13:19;7.43;;;6.67;;
19758;SDS011;10038;42.662;23.278;2023-06-01T11:21:03;6.20;;;5.60;;
19758;SDS011;10038;42.662;23.278;2023-06-01T11:23:31;7.77;;;5.90;;
19758;SDS011;10038;42.662;23.278;2023-06-01T11:25:58;6.10;;;5.50;;
19758;SDS011;10038;42.662;23.278;2023-06-01T11:28:27;6.37;;;5.77;;
19758;SDS011;10038;42.662;23.278;2023-06-01T11:30:53;6.00;;;5.40;;
19758;SDS011;10038;42.662;23.278;2023-06-01T11:33:21;7.10;;;6.40;;
19758;SDS011;10038;42.662;23.278;2023-06-01T11:35:56;8.00;;;6.67;;
19758;SDS011;10038;42.662;23.278;2023-06-01T11:38:24;8.77;;;7.60;;
19758;SDS011;10038;42.662;23.278;2023-06-01T11:40:58;4.80;;;4.30;;
19758;SDS011;10038;42.662;23.278;2023-06-01T11:43:27;5.13;;;3.70;;
19758;SDS011;10038;42.662;23.278;2023-06-01T11:46:00;6.77;;;3.70;;
19758;SDS011;10038;42.662;23.278;2023-06-01T11:48:27;4.50;;;3.90;;
19758;SDS011;10038;42.662;23.278;2023-06-01T11:50:53;5.63;;;4.53;;
19758;SDS011;10038;42.662;23.278;2023-06-01T11:53:20;4.63;;;4.20;;
19758;SDS011;10038;42.662;23.278;2023-06-01T11:55:49;4.13;;;3.73;;
19758;SDS011;10038;42.662;23.278;2023-06-01T11:58:20;4.77;;;3.63;;
19758;SDS011;10038;42.662;23.278;2023-06-01T12:00:47;5.90;;;3.70;;
19758;SDS011;10038;42.662;23.278;2023-06-01T12:03:14;4.40;;;3.70;;
19758;SDS011;10038;42.662;23.278;2023-06-01T12:05:41;7.70;;;4.80;;
19758;SDS011;10038;42.662;23.278;2023-06-01T12:08:12;5.40;;;4.13;;
19758;SDS011;10038;42.662;23.278;2023-06-01T12:10:39;4.80;;;3.90;;
19758;SDS011;10038;42.662;23.278;2023-06-01T12:13:07;5.93;;;4.80;;
19758;SDS011;10038;42.662;23.278;2023-06-01T12:15:33;4.93;;;3.70;;
19758;SDS011;10038;42.662;23.278;2023-06-01T12:18:00;6.13;;;4.90;;
19758;SDS011;10038;42.662;23.278;2023-06-01T12:20:27;5.73;;;4.80;;
19758;SDS011;10038;42.662;23.278;2023-06-01T12:22:54;6.27;;;4.90;;
19758;SDS011;10038;42.662;23.278;2023-06-01T12:25:21;7.63;;;4.97;;
19758;SDS011;10038;42.662;23.278;2023-06-01T12:27:59;5.47;;;4.80;;
19758;SDS011;10038;42.662;23.278;2023-06-01T12:30:27;8.77;;;4.63;;
19758;SDS011;10038;42.662;23.278;2023-06-01T12:32:53;6.00;;;4.60;;
19758;SDS011;10038;42.662;23.278;2023-06-01T12:35:20;10.00;;;5.20;;
19758;SDS011;10038;42.662;23.278;2023-06-01T12:38:01;11.37;;;5.90;;
19758;SDS011;10038;42.662;23.278;2023-06-01T12:40:28;8.83;;;4.80;;
19758;SDS011;10038;42.662;23.278;2023-06-01T12:42:55;7.90;;;5.33;;
19758;SDS011;10038;42.662;23.278;2023-06-01T12:45:21;8.13;;;4.73;;
19758;SDS011;10038;42.662;23.278;2023-06-01T12:47:49;7.27;;;4.80;;
19758;SDS011;10038;42.662;23.278;2023-06-01T12:50:18;5.83;;;4.80;;
19758;SDS011;10038;42.662;23.278;2023-06-01T12:52:45;9.43;;;5.10;;
19758;SDS011;10038;42.662;23.278;2023-06-01T12:55:11;6.67;;;5.17;;
19758;SDS011;10038;42.662;23.278;2023-06-01T12:57:39;5.50;;;4.40;;
19758;SDS011;10038;42.662;23.278;2023-06-01T13:00:07;8.57;;;4.20;;
19758;SDS011;10038;42.662;23.278;2023-06-01T13:02:34;6.47;;;4.17;;
19758;SDS011;10038;42.662;23.278;2023-06-01T13:05:02;5.10;;;3.90;;
19758;SDS011;10038;42.662;23.278;2023-06-01T13:07:31;9.20;;;4.80;;
19758;SDS011;10038;42.662;23.278;2023-06-01T13:09:57;5.10;;;4.60;;
19758;SDS011;10038;42.662;23.278;2023-06-01T13:12:25;6.73;;;3.80;;
19758;SDS011;10038;42.662;23.278;2023-06-01T13:14:52;3.53;;;3.20;;
19758;SDS011;10038;42.662;23.278;2023-06-01T13:17:20;5.80;;;2.93;;
19758;SDS011;10038;42.662;23.278;2023-06-01T13:19:47;3.50;;;3.07;;
19758;SDS011;10038;42.662;23.278;2023-06-01T13:22:15;5.67;;;2.40;;
19758;SDS011;10038;42.662;23.278;2023-06-01T13:24:41;3.60;;;2.37;;
19758;SDS011;10038;42.662;23.278;2023-06-01T13:27:08;2.60;;;2.07;;
19758;SDS011;10038;42.662;23.278;2023-06-01T13:29:35;3.40;;;1.57;;
19758;SDS011;10038;42.662;23.278;2023-06-01T13:32:01;1.87;;;1.50;;
19758;SDS011;10038;42.662;23.278;2023-06-01T13:34:28;2.00;;;1.60;;
19758;SDS011;10038;42.662;23.278;2023-06-01T13:36:55;1.63;;;1.50;;
19758;SDS011;10038;42.662;23.278;2023-06-01T13:39:23;4.30;;;2.27;;
19758;SDS011;10038;42.662;23.278;2023-06-01T13:41:50;2.23;;;1.50;;
19758;SDS011;10038;42.662;23.278;2023-06-01T13:44:17;2.00;;;1.77;;
19758;SDS011;10038;42.662;23.278;2023-06-01T13:46:44;1.70;;;1.57;;
19758;SDS011;10038;42.662;23.278;2023-06-01T13:49:11;1.93;;;1.80;;
19758;SDS011;10038;42.662;23.278;2023-06-01T13:51:37;3.13;;;1.97;;
19758;SDS011;10038;42.662;23.278;2023-06-01T13:54:10;3.07;;;1.87;;
19758;SDS011;10038;42.662;23.278;2023-06-01T13:56:39;2.10;;;1.90;;
19758;SDS011;10038;42.662;23.278;2023-06-01T13:59:06;1.67;;;1.57;;
19758;SDS011;10038;42.662;23.278;2023-06-01T14:01:32;3.13;;;2.13;;
19758;SDS011;10038;42.662;23.278;2023-06-01T14:04:00;1.70;;;1.60;;
19758;SDS011;10038;42.662;23.278;2023-06-01T14:06:26;2.70;;;2.17;;
19758;SDS011;10038;42.662;23.278;2023-06-01T14:08:53;2.77;;;2.00;;
19758;SDS011;10038;42.662;23.278;2023-06-01T14:11:19;2.70;;;2.37;;
19758;SDS011;10038;42.662;23.278;2023-06-01T14:13:48;3.77;;;2.90;;
19758;SDS011;10038;42.662;23.278;2023-06-01T14:16:15;4.43;;;3.07;;
19758;SDS011;10038;42.662;23.278;2023-06-01T14:18:41;4.03;;;3.40;;
19758;SDS011;10038;42.662;23.278;2023-06-01T14:21:08;10.50;;;3.17;;
19758;SDS011;10038;42.662;23.278;2023-06-01T14:23:34;6.50;;;3.40;;
19758;SDS011;10038;42.662;23.278;2023-06-01T14:26:01;4.00;;;3.03;;
19758;SDS011;10038;42.662;23.278;2023-06-01T14:28:27;4.00;;;3.00;;
19758;SDS011;10038;42.662;23.278;2023-06-01T14:30:56;5.53;;;3.23;;
19758;SDS011;10038;42.662;23.278;2023-06-01T14:33:22;3.43;;;3.00;;
19758;SDS011;10038;42.662;23.278;2023-06-01T14:35:49;3.40;;;3.03;;
19758;SDS011;10038;42.662;23.278;2023-06-01T14:38:15;3.87;;;3.47;;
19758;SDS011;10038;42.662;23.278;2023-06-01T14:40:42;4.07;;;3.50;;
19758;SDS011;10038;42.662;23.278;2023-06-01T14:43:09;3.73;;;2.97;;
19758;SDS011;10038;42.662;23.278;2023-06-01T14:45:35;6.20;;;4.27;;
19758;SDS011;10038;42.662;23.278;2023-06-01T14:48:03;4.30;;;3.67;;